Time;durP1;ratioP1;P1;durP2;ratioP2;P2;SDS_P1;SDS_P2;PMS_P1;PMS_P2;Temp;Humidity;BMP_temperature;BMP_pressure;BME280_temperature;BME280_humidity;BME280_pressure;Samples;Min_cycle;Max_cycle;Signal;HPM_P1;HPM_P2
2023/10/12 00:01:59;;;;;;;3.72;3.35;;;;;;;18.91;68.88;101160.38;5047863;28;20029;-59
2023/10/12 00:04:28;;;;;;;5.28;3.92;;;;;;;18.91;68.92;101163.09;5047830;28;20088;-59
2023/10/12 00:06:55;;;;;;;7.32;4.72;;;;;;;18.91;68.48;101165.78;5048754;28;20104;-59
2023/10/12 00:09:25;;;;;;;5.93;4.45;;;;;;;18.91;68.70;101168.47;5048345;28;20025;-59
2023/10/12 00:12:07;;;;;;;5.32;3.80;;;;;;;18.92;68.68;101180.97;5046027;28;20032;-59
2023/10/12 00:14:33;;;;;;;5.32;4.15;;;;;;;18.90;68.57;101181.09;5046157;28;20033;-59
2023/10/12 00:16:59;;;;;;;5.25;3.92;;;;;;;18.91;68.89;101182.81;5046117;28;20555;-59
2023/10/12 00:19:25;;;;;;;8.75;4.07;;;;;;;18.91;68.43;101184.66;5046044;28;20057;-59
2023/10/12 00:21:59;;;;;;;7.03;4.72;;;;;;;18.89;68.64;101182.09;5047286;28;20033;-59
2023/10/12 00:24:25;;;;;;;5.85;4.15;;;;;;;18.90;68.71;101178.41;5048296;28;20479;-59
2023/10/12 00:26:50;;;;;;;4.45;3.83;;;;;;;18.91;68.56;101181.97;5047717;28;20055;-59
2023/10/12 00:29:18;;;;;;;4.85;3.60;;;;;;;18.91;68.62;101179.28;5047802;28;20052;-60
2023/10/12 00:31:43;;;;;;;7.20;4.22;;;;;;;18.90;68.35;101186.50;5048490;28;20073;-60
2023/10/12 00:34:12;;;;;;;7.43;4.18;;;;;;;18.91;68.70;101195.47;5047434;28;20068;-60
2023/10/12 00:36:40;;;;;;;6.53;4.18;;;;;;;18.89;69.08;101190.22;5047492;28;20390;-60
2023/10/12 00:39:09;;;;;;;5.15;4.25;;;;;;;18.91;68.82;101190.06;5046023;28;20072;-60
2023/10/12 00:41:45;;;;;;;5.30;4.70;;;;;;;18.89;68.67;101194.75;5046846;28;20083;-60
2023/10/12 00:44:18;;;;;;;6.15;3.88;;;;;;;18.90;68.50;101201.84;5045025;28;20068;-60
2023/10/12 00:49:22;;;;;;;5.90;4.25;;;;;;;18.91;68.29;101222.44;5047215;28;20103;-61
2023/10/12 00:51:53;;;;;;;5.57;4.53;;;;;;;18.91;68.85;101214.34;5046286;28;20429;-61
2023/10/12 00:54:41;;;;;;;5.35;4.28;;;;;;;18.91;68.81;101217.91;5045986;28;20471;-61
2023/10/12 00:57:09;;;;;;;6.22;5.05;;;;;;;18.91;68.26;101223.28;5047244;28;20037;-61
2023/10/12 00:59:38;;;;;;;5.70;4.43;;;;;;;18.90;68.10;101229.66;5046208;28;20024;-61
2023/10/12 01:02:08;;;;;;;7.55;4.85;;;;;;;18.89;68.71;101224.44;5045769;28;20044;-61
2023/10/12 01:04:37;;;;;;;6.63;4.55;;;;;;;18.90;68.56;101231.53;5047017;28;20102;-61
2023/10/12 01:07:19;;;;;;;6.72;4.30;;;;;;;18.89;68.55;101222.59;5046678;28;20037;-61
2023/10/12 01:09:55;;;;;;;6.43;4.00;;;;;;;18.90;68.91;101215.34;5045485;28;20490;-61
2023/10/12 01:12:29;;;;;;;4.50;4.10;;;;;;;18.89;68.61;101225.28;5047161;28;20039;-61
2023/10/12 01:14:55;;;;;;;6.72;4.47;;;;;;;18.89;68.58;101219.03;5046797;28;20028;-61
2023/10/12 01:17:24;;;;;;;6.22;4.57;;;;;;;18.89;68.15;101210.94;5046101;28;20033;-61
2023/10/12 01:19:51;;;;;;;6.97;4.53;;;;;;;18.88;68.16;101212.78;5045920;28;20391;-61
2023/10/12 01:22:25;;;;;;;6.75;4.68;;;;;;;18.89;68.41;101221.75;5045716;28;20033;-61
2023/10/12 01:27:21;;;;;;;7.45;4.68;;;;;;;18.87;68.23;101221.03;5046488;28;20065;-61
2023/10/12 01:29:47;;;;;;;5.93;4.60;;;;;;;18.88;68.46;101234.34;5046258;28;20033;-62
2023/10/12 01:34:44;;;;;;;5.07;4.25;;;;;;;18.88;68.32;101228.97;5046029;28;20045;-61
2023/10/12 01:37:20;;;;;;;6.20;4.70;;;;;;;18.88;68.16;101217.31;5045866;28;20487;-61
2023/10/12 01:39:55;;;;;;;5.32;4.82;;;;;;;18.88;68.13;101201.13;5044674;28;20037;-62
2023/10/12 01:42:21;;;;;;;6.95;4.93;;;;;;;18.88;68.04;101184.94;5045436;28;20029;-61
2023/10/12 01:44:47;;;;;;;4.65;4.00;;;;;;;18.87;68.44;101180.56;5046830;28;20024;-62
2023/10/12 01:47:13;;;;;;;7.50;4.13;;;;;;;18.86;68.64;101182.38;5046624;28;20075;-62
2023/10/12 01:49:39;;;;;;;6.57;4.72;;;;;;;18.87;68.11;101180.56;5047033;28;20450;-63
2023/10/12 01:52:08;;;;;;;4.68;4.03;;;;;;;18.87;68.05;101180.56;5046327;28;20076;-62
2023/10/12 01:54:33;;;;;;;5.38;4.07;;;;;;;18.88;68.43;101182.25;5045427;28;20082;-62
2023/10/12 01:56:59;;;;;;;4.68;3.63;;;;;;;18.88;68.33;101184.94;5044894;28;20045;-62
2023/10/12 01:59:25;;;;;;;6.55;5.13;;;;;;;18.87;68.16;101185.97;5045141;28;20066;-62
2023/10/12 02:02:00;;;;;;;4.88;4.20;;;;;;;18.86;67.73;101185.09;5045130;28;20041;-62
2023/10/12 02:04:25;;;;;;;10.02;4.65;;;;;;;18.86;67.83;101182.38;5045674;28;20484;-62
2023/10/12 02:06:52;;;;;;;7.35;4.00;;;;;;;18.87;67.92;101183.25;5045801;28;20076;-61
2023/10/12 02:09:22;;;;;;;5.43;3.90;;;;;;;18.86;68.11;101184.25;5045834;28;20124;-62
2023/10/12 02:11:53;;;;;;;6.25;4.45;;;;;;;18.86;67.67;101195.03;5044561;28;20033;-62
2023/10/12 02:14:40;;;;;;;;;;;;;;;18.96;68.25;101193.16;5045108;28;20037;-62
2023/10/12 02:17:08;;;;;;;6.00;3.83;;;;;;;18.87;67.93;101189.50;5045765;28;19958;-62
2023/10/12 02:19:44;;;;;;;6.93;4.32;;;;;;;18.86;68.20;101193.19;5045930;28;20412;-62
2023/10/12 02:22:29;;;;;;;8.68;4.35;;;;;;;18.86;68.16;101186.94;5044959;28;20060;-62
2023/10/12 02:27:43;;;;;;;4.10;3.67;;;;;;;18.85;67.89;101204.97;5052452;28;20110;-62
2023/10/12 02:30:18;;;;;;;5.47;4.30;;;;;;;18.84;68.20;101195.16;5046926;28;20029;-62
2023/10/12 02:32:48;;;;;;;6.22;4.05;;;;;;;18.84;68.17;101188.94;5045522;28;20044;-64
2023/10/12 02:35:15;;;;;;;4.80;4.10;;;;;;;18.85;68.09;101193.31;5045705;28;20059;-62
2023/10/12 02:37:42;;;;;;;7.30;4.03;;;;;;;18.84;67.84;101170.03;5045325;28;20189;-62
2023/10/12 02:40:09;;;;;;;5.15;3.72;;;;;;;18.83;68.41;101144.03;5045392;28;20475;-62
2023/10/12 02:42:41;;;;;;;5.00;4.18;;;;;;;18.83;67.92;101149.44;5045892;28;20140;-62
2023/10/12 02:47:41;;;;;;;4.95;4.28;;;;;;;18.84;68.36;101164.66;5044137;28;20053;-62
2023/10/12 02:52:35;;;;;;;7.45;4.55;;;;;;;18.84;68.03;101167.34;5045029;28;20543;-62
2023/10/12 02:58:23;;;;;;;6.05;4.10;;;;;;;18.84;68.06;101184.38;5046601;28;20045;-61
2023/10/12 03:00:54;;;;;;;5.05;3.63;;;;;;;18.84;67.98;101167.34;5043681;28;20048;-62
2023/10/12 03:03:26;;;;;;;;;;;;;;;18.92;68.03;101160.25;5044641;28;20037;-62
2023/10/12 03:05:53;;;;;;;;;;;;;;;18.93;68.13;101155.69;5046113;28;20355;-62
2023/10/12 03:08:22;;;;;;;7.45;4.63;;;;;;;18.84;68.10;101135.81;5047291;28;20011;-62
2023/10/12 03:13:26;;;;;;;7.32;4.53;;;;;;;18.82;68.15;101137.81;5049687;28;20040;-62
2023/10/12 03:15:59;;;;;;;5.25;4.50;;;;;;;18.82;67.86;101153.16;5049374;28;20033;-62
2023/10/12 03:18:27;;;;;;;5.32;4.20;;;;;;;18.82;68.08;101150.47;5048313;28;20087;-62
2023/10/12 03:21:04;;;;;;;5.53;4.07;;;;;;;18.81;68.12;101152.31;5048422;28;20122;-62
2023/10/12 03:23:33;;;;;;;4.78;4.25;;;;;;;18.82;68.27;101148.59;5048599;28;20045;-62
2023/10/12 03:26:48;;;;;;;6.50;4.03;;;;;;;18.82;67.85;101147.75;5048775;28;20091;-62
2023/10/12 03:29:09;;;;;;;4.30;3.90;;;;;;;18.82;68.24;101153.16;5045581;28;20046;-62
2023/10/12 03:31:53;;;;;;;5.15;4.18;;;;;;;18.82;68.03;101161.25;5045118;28;20029;-62
2023/10/12 03:34:35;;;;;;;5.53;4.28;;;;;;;18.82;68.05;101155.84;5048792;28;20564;-63
2023/10/12 03:37:13;;;;;;;4.70;4.30;;;;;;;18.80;68.04;101153.28;5047307;28;20040;-62
2023/10/12 03:45:07;;;;;;;5.18;3.95;;;;;;;18.81;67.87;101151.44;5047116;28;20148;-62
2023/10/12 03:47:46;;;;;;;8.20;4.47;;;;;;;18.81;67.92;101156.84;5047123;28;20403;-62
2023/10/12 03:50:16;;;;;;;6.28;4.07;;;;;;;18.82;68.27;101178.28;5048775;28;20029;-62
2023/10/12 03:52:51;;;;;;;5.20;4.03;;;;;;;18.81;67.96;101181.13;5048903;28;20511;-62
2023/10/12 03:55:27;;;;;;;4.88;4.15;;;;;;;18.80;68.05;101172.19;5049015;28;20033;-62
2023/10/12 03:58:06;;;;;;;5.47;4.07;;;;;;;18.81;68.10;101175.72;5047634;28;20463;-62
2023/10/12 04:00:48;;;;;;;5.03;4.53;;;;;;;18.81;68.00;101182.00;5046338;28;20041;-62
2023/10/12 04:03:21;;;;;;;6.28;4.60;;;;;;;18.81;68.37;101186.50;5049032;28;20110;-62
2023/10/12 04:05:51;;;;;;;4.90;4.18;;;;;;;18.80;68.13;101182.97;5048121;28;20033;-62
2023/10/12 04:08:18;;;;;;;6.00;4.50;;;;;;;18.80;67.85;101199.16;5047896;28;20069;-62
2023/10/12 04:18:32;;;;;;;6.68;4.88;;;;;;;18.82;68.03;101199.03;5047492;28;20147;-62
2023/10/12 04:21:03;;;;;;;5.05;4.55;;;;;;;18.79;67.98;101197.44;5047143;28;20037;-62
2023/10/12 04:28:58;;;;;;;4.70;4.20;;;;;;;18.81;67.57;101183.81;5046298;28;20132;-62
2023/10/12 04:31:34;;;;;;;5.30;4.40;;;;;;;18.79;67.67;101189.34;5047571;28;20167;-62
2023/10/12 04:36:47;;;;;;;8.25;4.75;;;;;;;18.79;68.25;101191.16;5048705;28;20042;-62
2023/10/12 04:46:59;;;;;;;5.50;4.40;;;;;;;18.79;68.06;101197.44;5046608;28;20049;-62
2023/10/12 04:49:53;;;;;;;5.93;4.45;;;;;;;18.79;68.10;101210.94;5046927;28;20467;-62
2023/10/12 04:57:32;;;;;;;4.25;3.85;;;;;;;18.79;68.42;101196.56;5045478;28;20079;-61
2023/10/12 05:00:16;;;;;;;5.82;4.32;;;;;;;18.79;67.78;101201.97;5044470;28;20025;-61
2023/10/12 05:07:54;;;;;;;5.00;4.50;;;;;;;18.77;68.34;101210.19;5047388;28;20047;-61
2023/10/12 05:10:28;;;;;;;5.40;4.32;;;;;;;18.78;68.29;101227.25;5047807;28;20509;-61
2023/10/12 05:13:04;;;;;;;5.18;4.03;;;;;;;18.78;67.80;101230.78;5047168;28;20025;-61
2023/10/12 05:15:39;;;;;;;6.80;4.68;;;;;;;18.79;67.82;101239.72;5046152;28;20475;-61
2023/10/12 05:18:13;;;;;;;5.70;4.30;;;;;;;18.78;67.96;101233.50;5046039;28;20472;-61
2023/10/12 05:20:42;;;;;;;6.00;4.60;;;;;;;18.79;68.09;101239.72;5048847;28;20588;-61
2023/10/12 05:23:09;;;;;;;5.70;4.57;;;;;;;18.78;68.06;101238.03;5046928;28;20029;-61
2023/10/12 05:28:27;;;;;;;5.75;4.00;;;;;;;18.78;68.20;101236.19;5047707;28;20049;-61
2023/10/12 05:36:05;;;;;;;4.75;4.20;;;;;;;18.76;68.12;101239.03;5052332;28;20037;-60
2023/10/12 05:38:36;;;;;;;5.32;4.47;;;;;;;18.76;68.09;101247.09;5047205;28;20029;-62
2023/10/12 05:41:04;;;;;;;5.43;4.55;;;;;;;18.77;68.14;101247.97;5046657;28;20045;-62
2023/10/12 05:43:33;;;;;;;9.30;4.25;;;;;;;18.76;68.12;101241.72;5046879;28;20036;-61
2023/10/12 05:46:04;;;;;;;7.93;4.20;;;;;;;18.76;68.56;101244.41;5046507;28;20120;-61
2023/10/12 05:48:33;;;;;;;;;;;;;;;18.85;68.28;101250.84;5044525;28;20057;-61
2023/10/12 05:50:59;;;;;;;4.88;4.13;;;;;;;18.78;68.47;101254.22;5047396;28;20371;-61
2023/10/12 05:53:26;;;;;;;5.00;4.20;;;;;;;18.78;68.00;101265.03;5048779;28;20055;-61
2023/10/12 05:55:52;;;;;;;6.30;4.53;;;;;;;18.77;68.39;101272.22;5050615;28;20086;-62
2023/10/12 05:58:17;;;;;;;7.38;4.53;;;;;;;18.76;68.22;101267.84;5049371;28;20029;-62
2023/10/12 06:00:45;;;;;;;6.13;4.82;;;;;;;18.76;68.29;101276.78;5048023;28;20044;-61
2023/10/12 06:03:20;;;;;;;4.75;3.95;;;;;;;18.75;68.02;101275.09;5046060;28;20032;-62
2023/10/12 06:05:47;;;;;;;5.28;4.55;;;;;;;18.76;68.95;101276.78;5048620;28;20103;-61
2023/10/12 06:08:18;;;;;;;6.05;4.15;;;;;;;18.76;68.60;101276.78;5048558;28;20032;-61
2023/10/12 06:10:45;;;;;;;5.13;4.10;;;;;;;18.76;68.80;101273.25;5045506;28;20041;-61
2023/10/12 06:13:15;;;;;;;4.97;4.18;;;;;;;18.77;69.01;101277.63;5048245;28;20039;-61
2023/10/12 06:15:42;;;;;;;4.55;4.05;;;;;;;18.76;68.46;101276.78;5044901;28;20493;-61
2023/10/12 06:18:21;;;;;;;5.40;4.20;;;;;;;18.78;68.68;101275.81;5046695;28;20018;-60
2023/10/12 06:20:48;;;;;;;6.43;4.15;;;;;;;18.77;68.54;101285.72;5048318;28;20459;-60
2023/10/12 06:23:15;;;;;;;5.68;3.95;;;;;;;18.75;68.63;101285.88;5044549;28;20099;-61
2023/10/12 06:25:43;;;;;;;6.20;4.60;;;;;;;18.76;68.82;101290.28;5046624;28;20033;-60
2023/10/12 06:28:18;;;;;;;4.97;4.43;;;;;;;18.75;68.86;101288.59;5047431;28;20068;-61
2023/10/12 06:30:45;;;;;;;5.97;4.55;;;;;;;18.75;68.68;101287.72;5044525;28;20107;-61
2023/10/12 06:33:15;;;;;;;5.53;4.28;;;;;;;18.75;68.67;101287.72;5045760;28;20064;-61
2023/10/12 06:35:59;;;;;;;4.53;4.00;;;;;;;18.76;68.44;101284.03;5048667;28;20028;-61
2023/10/12 06:38:39;;;;;;;6.82;4.57;;;;;;;18.76;68.58;101287.56;5047549;28;20482;-61
2023/10/12 06:46:18;;;;;;;6.53;4.50;;;;;;;18.76;68.27;101298.38;5046451;28;20094;-61
2023/10/12 06:48:47;;;;;;;5.55;4.65;;;;;;;18.75;68.42;101296.69;5045945;28;20102;-61
2023/10/12 06:51:13;;;;;;;7.85;4.75;;;;;;;18.74;68.71;101294.97;5041768;28;20479;-61
2023/10/12 06:53:41;;;;;;;6.60;4.95;;;;;;;18.75;68.46;101304.78;5044747;28;20178;-61
2023/10/12 06:58:44;;;;;;;6.63;5.05;;;;;;;18.75;69.06;101304.78;5045213;28;20025;-61
2023/10/12 07:01:18;;;;;;;6.63;4.10;;;;;;;18.74;68.71;101303.06;5043511;28;20474;-61
2023/10/12 07:03:50;;;;;;;7.95;4.70;;;;;;;18.75;68.76;101304.78;5045262;28;20492;-62
2023/10/12 07:06:16;;;;;;;7.05;4.32;;;;;;;18.75;68.68;101310.16;5044499;28;20068;-62
2023/10/12 07:08:46;;;;;;;9.75;5.35;;;;;;;18.75;68.57;101310.16;5043244;28;20154;-62
2023/10/12 07:11:14;;;;;;;12.07;4.68;;;;;;;18.75;68.63;101320.97;5044176;28;20040;-62
2023/10/12 07:13:41;;;;;;;7.28;4.35;;;;;;;18.75;68.89;101320.09;5045104;28;20034;-62
2023/10/12 07:16:08;;;;;;;5.55;4.50;;;;;;;18.74;68.96;101324.63;5045545;28;20117;-62
2023/10/12 07:18:34;;;;;;;7.05;4.70;;;;;;;18.75;68.86;101326.34;5045111;28;20025;-61
2023/10/12 07:21:00;;;;;;;6.95;5.25;;;;;;;18.75;69.06;101325.47;5045514;28;20065;-61
2023/10/12 07:23:35;;;;;;;10.30;5.30;;;;;;;18.76;68.94;101327.19;5045590;28;20533;-62
2023/10/12 07:26:06;;;;;;;7.65;4.93;;;;;;;18.76;68.46;101328.03;5045463;28;20392;-61
2023/10/12 07:28:34;;;;;;;9.98;5.82;;;;;;;18.77;69.02;101326.19;5045511;28;20117;-61
2023/10/12 07:33:52;;;;;;;7.60;5.30;;;;;;;18.75;69.08;101334.44;5043394;28;20090;-61
2023/10/12 07:36:17;;;;;;;6.97;5.15;;;;;;;18.75;69.03;101347.06;5043380;28;20076;-61
2023/10/12 07:39:14;;;;;;;13.40;5.63;;;;;;;18.74;69.15;101342.66;5042465;28;20048;-61
2023/10/12 07:41:41;;;;;;;11.63;5.43;;;;;;;18.75;69.10;101344.38;5042273;28;20396;-61
2023/10/12 07:44:07;;;;;;;8.45;5.70;;;;;;;18.74;68.87;101346.22;5042811;28;20043;-61
2023/10/12 07:46:35;;;;;;;8.93;5.70;;;;;;;18.75;68.89;101353.34;5042695;28;20140;-61
2023/10/12 07:49:27;;;;;;;9.02;5.35;;;;;;;18.75;68.82;101347.06;5044517;28;20571;-61
2023/10/12 07:57:16;;;;;;;7.78;5.03;;;;;;;18.74;69.00;101348.91;5048242;28;20067;-61
2023/10/12 07:59:54;;;;;;;8.80;5.28;;;;;;;18.74;68.81;101351.59;5048622;28;20033;-61
2023/10/12 08:05:24;;;;;;;9.25;4.95;;;;;;;18.74;69.08;101348.91;5051980;28;20445;-62
2023/10/12 08:24:01;;;;;;;7.57;5.32;;;;;;;18.73;68.90;101349.91;5047830;28;20060;-62
2023/10/12 08:26:47;;;;;;;7.10;5.20;;;;;;;18.73;68.94;101349.91;5047552;28;20033;-62
2023/10/12 08:37:18;;;;;;;7.45;4.82;;;;;;;18.74;69.07;101356.16;5048910;28;20033;-62
2023/10/12 08:45:09;;;;;;;7.53;5.03;;;;;;;18.75;69.33;101363.25;5048048;28;20041;-62
2023/10/12 08:50:37;;;;;;;7.07;4.80;;;;;;;18.74;69.67;101365.09;5051670;28;20387;-62
2023/10/12 08:52:53;;;;;;;7.95;4.93;;;;;;;18.75;69.47;101372.22;5052675;28;20047;-61
2023/10/12 08:55:19;;;;;;;6.05;5.07;;;;;;;18.74;69.55;101367.78;5049143;28;20598;-61
2023/10/12 08:58:12;;;;;;;7.32;5.03;;;;;;;18.78;69.39;101372.94;5045617;28;20426;-61
2023/10/12 09:01:07;;;;;;;7.93;4.80;;;;;;;18.75;69.67;101385.69;5045873;28;20123;-61
2023/10/12 09:03:38;;;;;;;9.40;4.95;;;;;;;18.75;69.67;101391.09;5046589;28;20403;-61
2023/10/12 09:06:19;;;;;;;8.63;5.30;;;;;;;18.75;69.46;101383.00;5046006;28;20025;-61
2023/10/12 09:08:46;;;;;;;7.50;4.97;;;;;;;18.76;69.54;101387.38;5043872;28;20032;-61
2023/10/12 09:13:38;;;;;;;9.40;5.15;;;;;;;18.75;69.53;101380.31;5046261;28;20047;-61
2023/10/12 09:16:07;;;;;;;6.60;5.63;;;;;;;18.75;69.93;101380.31;5045610;28;20020;-61
2023/10/12 09:18:35;;;;;;;8.45;5.22;;;;;;;18.76;70.05;101373.06;5049030;28;20040;-62
2023/10/12 09:23:46;;;;;;;9.45;5.57;;;;;;;18.76;69.65;101375.75;5046512;28;20067;-61
2023/10/12 09:26:15;;;;;;;9.77;5.47;;;;;;;18.76;69.55;101381.16;5046354;28;20087;-61
2023/10/12 09:31:48;;;;;;;7.75;6.03;;;;;;;18.76;69.91;101371.19;5046292;28;20580;-61
2023/10/12 09:34:42;;;;;;;;;;;;;;;18.86;69.50;101370.41;5041991;28;20037;-63
2023/10/12 09:36:57;;;;;;;7.20;5.10;;;;;;;18.78;69.83;101356.75;5046124;28;19943;-63
2023/10/12 09:39:34;;;;;;;6.80;5.38;;;;;;;18.76;70.19;101355.00;5046010;28;20060;-62
2023/10/12 09:42:09;;;;;;;8.43;5.88;;;;;;;18.76;69.64;101354.19;5046175;28;20475;-62
2023/10/12 09:44:39;;;;;;;8.60;5.40;;;;;;;18.76;69.78;101352.31;5047537;28;20029;-63
2023/10/12 09:47:15;;;;;;;10.00;6.50;;;;;;;18.76;69.90;101351.47;5048238;28;20046;-62
2023/10/12 09:49:53;;;;;;;7.78;5.00;;;;;;;18.76;69.97;101346.94;5046215;28;20067;-63
2023/10/12 09:52:23;;;;;;;7.75;5.45;;;;;;;18.75;70.40;101342.53;5044847;28;20438;-62
2023/10/12 09:55:00;;;;;;;7.22;5.30;;;;;;;18.76;70.08;101349.63;5044587;28;20037;-63
2023/10/12 09:57:26;;;;;;;8.23;5.45;;;;;;;18.76;70.38;101349.63;5046799;28;20433;-63
2023/10/12 10:00:17;;;;;;;6.35;5.55;;;;;;;18.77;70.29;101347.78;5041592;28;20091;-63
2023/10/12 10:02:44;;;;;;;10.95;6.10;;;;;;;18.76;70.41;101332.59;5048417;28;20418;-63
2023/10/12 10:05:27;;;;;;;9.82;6.00;;;;;;;18.77;70.34;101334.28;5049065;28;20103;-63
2023/10/12 10:08:04;;;;;;;8.77;5.63;;;;;;;18.77;70.39;101347.78;5052000;28;20037;-62
2023/10/12 10:10:31;;;;;;;6.43;4.68;;;;;;;18.78;70.46;101351.34;5043473;28;20082;-63
2023/10/12 10:13:00;;;;;;;7.05;5.03;;;;;;;18.77;70.19;101350.47;5047129;28;20040;-62
2023/10/12 10:15:36;;;;;;;8.63;5.95;;;;;;;18.76;70.29;101344.22;5044690;28;20040;-62
2023/10/12 10:18:04;;;;;;;10.73;5.57;;;;;;;18.76;70.16;101344.22;5044997;28;20033;-62
2023/10/12 10:22:59;;;;;;;7.88;5.32;;;;;;;18.78;70.72;101336.00;5045613;28;20120;-62
2023/10/12 10:25:28;;;;;;;6.35;5.32;;;;;;;18.76;70.62;101322.66;5043694;28;20144;-62
2023/10/12 10:27:56;;;;;;;9.57;5.78;;;;;;;18.77;70.39;101323.50;5045766;28;20116;-63
2023/10/12 10:30:28;;;;;;;12.95;6.43;;;;;;;18.79;70.69;101320.66;5043330;28;20493;-63
2023/10/12 10:33:17;;;;;;;8.93;5.93;;;;;;;18.79;70.44;101320.66;5044480;28;20029;-62
2023/10/12 10:35:57;;;;;;;10.68;6.47;;;;;;;18.79;70.57;101321.53;5044103;28;20033;-62
2023/10/12 10:38:36;;;;;;;12.68;6.60;;;;;;;18.79;70.44;101315.25;5043524;28;20064;-63
2023/10/12 10:41:18;;;;;;;9.18;6.10;;;;;;;18.79;70.49;101312.56;5045035;28;20376;-62
2023/10/12 10:43:44;;;;;;;9.80;6.22;;;;;;;18.79;70.58;101315.25;5044240;28;20029;-62
2023/10/12 10:46:10;;;;;;;11.25;5.68;;;;;;;18.79;70.65;101315.25;5046186;28;20128;-63
2023/10/12 10:48:38;;;;;;;12.07;6.47;;;;;;;18.80;70.76;101316.97;5044861;28;20120;-62
2023/10/12 10:51:18;;;;;;;11.80;6.72;;;;;;;18.80;70.70;101316.97;5047420;28;20471;-62
2023/10/12 10:53:52;;;;;;;11.90;6.50;;;;;;;18.80;70.63;101311.59;5046231;28;20036;-62
2023/10/12 10:56:32;;;;;;;11.48;6.65;;;;;;;18.80;70.74;101311.59;5046091;28;20127;-62
2023/10/12 10:58:59;;;;;;;11.30;6.20;;;;;;;18.81;70.72;101313.31;5044909;28;20033;-62
2023/10/12 11:01:26;;;;;;;11.10;6.40;;;;;;;18.81;70.93;101310.59;5044857;28;20045;-62
2023/10/12 11:03:52;;;;;;;11.75;5.95;;;;;;;18.81;70.30;101316.00;5045863;28;20656;-62
2023/10/12 11:06:21;;;;;;;10.75;6.00;;;;;;;18.82;70.64;101309.63;5044477;28;20464;-62
2023/10/12 11:09:05;;;;;;;8.93;5.82;;;;;;;18.81;70.60;101311.47;5045621;28;20444;-62
2023/10/12 11:11:37;;;;;;;10.35;6.00;;;;;;;18.82;70.40;101306.94;5044581;28;20037;-62
2023/10/12 11:14:08;;;;;;;9.52;6.03;;;;;;;18.81;70.43;101303.38;5045353;28;20112;-62
2023/10/12 11:16:36;;;;;;;7.88;5.60;;;;;;;18.81;70.28;101302.50;5041604;28;20041;-62
2023/10/12 11:19:03;;;;;;;8.95;5.90;;;;;;;18.82;70.49;101298.84;5046275;28;20467;-62
2023/10/12 11:21:29;;;;;;;8.68;5.70;;;;;;;18.81;70.62;101298.00;5044861;28;20040;-62
2023/10/12 11:24:09;;;;;;;7.88;5.78;;;;;;;18.82;70.53;101302.38;5046096;28;20029;-62
2023/10/12 11:26:54;;;;;;;9.43;5.70;;;;;;;18.83;70.52;101296.00;5046584;28;20144;-62
2023/10/12 11:29:20;;;;;;;8.60;5.72;;;;;;;18.82;70.25;101298.84;5049482;28;20025;-62
2023/10/12 11:32:16;;;;;;;8.05;5.68;;;;;;;18.83;70.20;101305.91;5049665;28;20071;-62
2023/10/12 11:34:52;;;;;;;8.73;4.97;;;;;;;18.82;70.24;101299.69;5048792;28;20086;-62
2023/10/12 11:37:19;;;;;;;10.30;5.75;;;;;;;18.82;70.51;101288.88;5049327;28;20029;-62
2023/10/12 11:39:49;;;;;;;8.70;5.57;;;;;;;18.82;70.57;101288.06;5050035;28;20103;-62
2023/10/12 11:42:14;;;;;;;7.10;5.60;;;;;;;18.82;70.54;101282.66;5049966;28;20171;-61
2023/10/12 11:44:45;;;;;;;7.68;6.32;;;;;;;18.81;70.27;101281.81;5049766;28;20107;-62
2023/10/12 11:47:23;;;;;;;8.35;5.75;;;;;;;18.83;70.47;101290.59;5048669;28;20063;-62
2023/10/12 11:49:58;;;;;;;9.45;6.32;;;;;;;18.83;70.29;101284.34;5048611;28;20045;-62
2023/10/12 11:52:32;;;;;;;9.63;5.47;;;;;;;18.83;70.22;101289.72;5047997;28;20124;-62
2023/10/12 11:55:07;;;;;;;7.18;5.47;;;;;;;18.83;70.38;101278.94;5046740;28;20041;-62
2023/10/12 11:57:35;;;;;;;8.77;5.93;;;;;;;18.83;70.47;101285.22;5061173;28;20128;-62
2023/10/12 12:00:01;;;;;;;7.90;5.80;;;;;;;18.83;70.07;101279.81;5047373;28;20450;-62
2023/10/12 12:02:26;;;;;;;7.10;5.72;;;;;;;18.82;70.32;101278.09;5047937;28;20033;-62
2023/10/12 12:04:52;;;;;;;7.53;5.68;;;;;;;18.82;70.20;101270.00;5049395;28;20475;-62
2023/10/12 12:07:17;;;;;;;7.50;5.25;;;;;;;18.83;70.17;101277.13;5048866;28;20136;-62
2023/10/12 12:09:48;;;;;;;8.73;5.43;;;;;;;18.83;70.51;101284.34;5048795;28;20033;-62
2023/10/12 12:12:16;;;;;;;9.07;5.47;;;;;;;18.83;70.21;101284.34;5048335;28;20044;-62
2023/10/12 12:14:49;;;;;;;6.85;5.25;;;;;;;18.83;70.38;101287.91;5048139;28;20132;-61
2023/10/12 12:17:17;;;;;;;8.40;4.82;;;;;;;18.84;69.94;101291.47;5048067;28;20037;-61
2023/10/12 12:19:43;;;;;;;7.85;5.40;;;;;;;18.85;70.15;101282.34;5048670;28;20038;-61
2023/10/12 12:22:13;;;;;;;8.43;5.25;;;;;;;18.84;70.14;101272.56;5049730;28;20041;-62
2023/10/12 12:24:41;;;;;;;6.60;5.38;;;;;;;18.85;70.00;101266.16;5049292;28;20025;-62
2023/10/12 12:27:22;;;;;;;6.50;5.25;;;;;;;18.84;70.23;101264.47;5047428;28;20132;-62
2023/10/12 12:29:48;;;;;;;6.85;5.05;;;;;;;18.85;70.28;101250.84;5047526;28;20037;-61
2023/10/12 12:32:14;;;;;;;7.72;5.13;;;;;;;18.85;70.02;101239.19;5047033;28;20045;-61
2023/10/12 12:34:41;;;;;;;6.53;5.18;;;;;;;18.85;70.43;101233.78;5047463;28;20041;-61
2023/10/12 12:37:08;;;;;;;6.32;5.35;;;;;;;18.85;70.30;101239.19;5046947;28;20120;-62
2023/10/12 12:39:34;;;;;;;8.90;5.40;;;;;;;18.84;70.38;101224.84;5048349;28;20037;-61
2023/10/12 12:42:01;;;;;;;7.32;5.05;;;;;;;18.84;70.13;101235.63;5048933;28;20029;-61
2023/10/12 12:44:26;;;;;;;8.18;5.50;;;;;;;18.84;70.07;101246.44;5048832;28;20056;-61
2023/10/12 12:46:52;;;;;;;7.30;5.10;;;;;;;18.85;69.98;101249.97;5048584;28;20564;-61
2023/10/12 12:49:17;;;;;;;7.35;5.45;;;;;;;18.84;69.94;101243.72;5048923;28;20495;-61
2023/10/12 12:51:43;;;;;;;7.18;5.00;;;;;;;18.85;70.19;101245.44;5047729;28;20036;-61
2023/10/12 12:54:08;;;;;;;8.80;5.07;;;;;;;18.85;70.08;101253.53;5047869;28;20040;-61
2023/10/12 12:56:36;;;;;;;7.25;5.30;;;;;;;18.85;69.79;101245.44;5047683;28;20037;-61
2023/10/12 12:59:04;;;;;;;8.35;5.70;;;;;;;18.85;70.02;101242.75;5047235;28;20120;-61
2023/10/12 13:01:31;;;;;;;10.75;5.25;;;;;;;18.85;70.35;101247.28;5045693;28;20033;-61
2023/10/12 13:03:56;;;;;;;7.13;5.45;;;;;;;18.85;70.24;101245.44;5049498;28;20486;-62
2023/10/12 13:06:25;;;;;;;10.60;5.35;;;;;;;18.85;70.11;101245.44;5051592;28;20037;-62
2023/10/12 13:08:50;;;;;;;8.00;5.63;;;;;;;18.86;70.08;101238.19;5051026;28;20367;-62
2023/10/12 13:11:20;;;;;;;7.38;5.20;;;;;;;18.86;70.00;101240.91;5051291;28;20033;-62
2023/10/12 13:13:47;;;;;;;7.82;4.80;;;;;;;18.86;69.99;101246.28;5044975;28;20099;-61
2023/10/12 13:16:12;;;;;;;6.28;5.38;;;;;;;18.85;70.39;101245.44;5045970;28;20036;-61
2023/10/12 13:18:39;;;;;;;5.70;5.10;;;;;;;18.86;70.24;101241.75;5046103;28;20116;-61
2023/10/12 13:21:07;;;;;;;7.93;5.57;;;;;;;18.86;70.06;101235.50;5046355;28;20021;-61
2023/10/12 13:23:33;;;;;;;6.75;4.70;;;;;;;18.85;70.25;101239.19;5046299;28;20037;-61
2023/10/12 13:26:10;;;;;;;6.70;4.70;;;;;;;18.86;69.91;101232.81;5046157;28;20121;-61
2023/10/12 13:28:37;;;;;;;7.38;5.07;;;;;;;18.84;70.01;101232.09;5047187;28;20514;-61
2023/10/12 13:31:05;;;;;;;10.02;5.25;;;;;;;18.85;70.22;101233.78;5046854;28;20475;-61
2023/10/12 13:33:31;;;;;;;5.88;4.75;;;;;;;18.85;70.17;101233.78;5046610;28;20382;-61
2023/10/12 13:35:56;;;;;;;6.88;4.50;;;;;;;18.85;70.45;101233.78;5042667;28;20116;-61
2023/10/12 13:38:22;;;;;;;7.30;5.47;;;;;;;18.85;70.02;101234.66;5048966;28;20068;-61
2023/10/12 13:40:48;;;;;;;9.43;5.38;;;;;;;18.85;70.21;101231.97;5045384;28;20148;-61
2023/10/12 13:43:14;;;;;;;6.97;5.20;;;;;;;18.85;70.11;101231.09;5045173;28;20124;-62
2023/10/12 13:45:50;;;;;;;6.28;4.85;;;;;;;18.85;69.83;101223.00;5045094;28;20037;-61
2023/10/12 13:48:22;;;;;;;8.20;4.63;;;;;;;18.84;70.01;101216.75;5043392;28;20049;-62
2023/10/12 13:50:59;;;;;;;8.63;5.18;;;;;;;18.85;69.96;101223.00;5051761;28;20417;-61
2023/10/12 13:53:26;;;;;;;8.45;5.15;;;;;;;18.85;70.21;101212.19;5044507;28;20056;-61
2023/10/12 13:55:53;;;;;;;6.80;4.88;;;;;;;18.85;70.00;101220.28;5045495;28;20037;-61